BGUK

Upernavik Airport

Upernavik, Greenland
TAF BGUK 251459Z 2515/2524 33006KT 9999 -SN BKN006 TEMPO 2515/2524 4000 FEW004 BKN030
Issued Valid From Valid To
Apr-25 @ 14:59 UTC
(3 hours ago)
Apr-25 @ 15:00 UTC
(3 hours ago)
Apr-26 @ 00:00 UTC
(in 6 hours)
Apr-25 @ 15:00 to Apr-26 @ 00:00
TAF BGUK 251459Z 2515/2524 33006KT 9999 -SN BKN006
Wind Visibility Clouds Conditions
330° at 6 knots 10,000+ meters
  • Broken at 600' AGL
  • Light Snow
Temporary Apr-25 @ 15:00 to Apr-26 @ 00:00
TEMPO 2515/2524 4000 FEW004 BKN030
Visibility Clouds
4,007 meters
  • Few at 400' AGL
  • Broken at 3,000' AGL
TAF BGUK 251459Z 2515/2524 33006KT 9999 -SN BKN006 TEMPO 2515/2524 4000 FEW004 BKN030
Issued Apr-25 @ 14:59 UTC
(3 hours ago)
Valid From Apr-25 @ 15:00 UTC
(3 hours ago)
Valid To Apr-26 @ 00:00 UTC
(in 6 hours)
Apr-25 @ 15:00 - Apr-26 @ 00:00
Wind Visibility
330° at 6 knots 10,000+ meters
Clouds
  • Broken at 600' AGL
Conditions
  • Light Snow
Temporary Apr-25 @ 15:00 - Apr-26 @ 00:00
Clouds
  • Few at 400' AGL
  • Broken at 3,000' AGL